EGDR

RNAS Culdrose Airport

Helston, United Kingdom
METAR EGDR 160550Z AUTO 23013KT 9999 // SCT025/// 09/06 Q1004
Observed Flight Rules
Dec-16 @ 05:50 UTC (41 minutes ago) Visual Flight Rules
Wind Visibility Clouds
230° at 13 knots 10,000+ meters
  • Scattered at 2,500' AGL
Temperatures Readings
Current 9°C / 48°F
Dewpoint 6°C / 43°F
Humidity 82%
Altimeter 29.65" Hg
Pressure 1004 hPa
Elevation 82
METAR EGDR 160550Z AUTO 23013KT 9999 // SCT025/// 09/06 Q1004
Observed Flight Rules
Dec-16 @ 05:50 UTC
(41 minutes ago)
VFR
Wind Visibility
230° at 13 knots 10,000+ meters
Clouds
  • Scattered at 2,500' AGL
Temperature Dewpoint
9°C / 48°F 6°C / 43°F
Humidity Altimeter Pressure
82% 29.65" Hg 1004 hPa